Terminal Aerodrome Forecast
Issued by NWS Raleigh/Durham, NC

Home | Current Version | Previous Version | Text Only | Print | Product List | Glossary On
Versions: 1 2 3 4 5 6 7 8 9 10 11 12 13 14 15 16 17 18 19 20 21 22 23 24 25 26 27 28 29 30 31 32
000
FTUS42 KRAH 261135
TAFFAY
TAF
KFAY 261135Z 2612/2712 00000KT P6SM OVC070
     FM261500 29007KT P6SM BKN035
      TEMPO 2615/2618 -SHRA SCT025
     FM270000 32012G22KT P6SM OVC035
     FM270700 31011KT P6SM OVC100=

USA.gov is the U.S. government's official web portal to all federal, state and local government web resources and services.